Time;durP1;ratioP1;P1;durP2;ratioP2;P2;SDS_P1;SDS_P2;PMS_P1;PMS_P2;Temp;Humidity;BMP_temperature;BMP_pressure;BME280_temperature;BME280_humidity;BME280_pressure;Samples;Min_cycle;Max_cycle;Signal;HPM_P1;HPM_P2
2021/10/12 00:01:32;;;;;;;11.50;10.30;;;14.40;99.90;;;;;;5033697;28;20588;-74
2021/10/12 00:03:59;;;;;;;11.15;10.05;;;14.40;99.90;;;;;;5015986;28;20116;-73
2021/10/12 00:06:27;;;;;;;11.57;10.77;;;14.30;99.90;;;;;;5015821;28;20133;-74
2021/10/12 00:08:54;;;;;;;11.98;11.00;;;14.30;99.90;;;;;;5033643;28;20422;-73
2021/10/12 00:11:22;;;;;;;12.82;11.50;;;14.10;99.90;;;;;;5033592;28;20031;-72
2021/10/12 00:13:49;;;;;;;12.75;11.73;;;14.00;99.90;;;;;;5033608;28;20030;-71
2021/10/12 00:16:17;;;;;;;12.45;11.30;;;13.90;99.90;;;;;;5033579;28;20463;-72
2021/10/12 00:18:44;;;;;;;12.48;11.63;;;13.80;99.90;;;;;;5033458;28;20045;-73
2021/10/12 00:21:12;;;;;;;12.90;11.80;;;13.80;99.90;;;;;;5033448;28;20096;-72
2021/10/12 00:23:40;;;;;;;12.65;11.38;;;13.70;99.90;;;;;;5033478;28;20013;-72
2021/10/12 00:26:08;;;;;;;13.00;11.80;;;13.70;99.90;;;;;;5033444;28;20021;-72
2021/10/12 00:28:35;;;;;;;14.38;11.95;;;13.80;99.90;;;;;;5033508;28;20029;-72
2021/10/12 00:31:04;;;;;;;12.77;11.65;;;13.80;99.90;;;;;;5033328;28;20072;-73
2021/10/12 00:33:33;;;;;;;12.25;11.05;;;14.00;99.90;;;;;;5033249;28;20521;-73
2021/10/12 00:36:01;;;;;;;11.88;10.93;;;13.90;99.90;;;;;;5033094;28;20033;-73
2021/10/12 00:38:29;;;;;;;12.00;10.88;;;13.90;99.90;;;;;;5032952;28;20018;-72
2021/10/12 00:40:56;;;;;;;11.90;10.82;;;13.90;99.90;;;;;;5015448;28;20040;-71
2021/10/12 00:43:27;;;;;;;13.02;11.40;;;14.00;99.90;;;;;;5033021;28;20462;-71
2021/10/12 00:45:58;;;;;;;12.68;11.77;;;14.00;99.90;;;;;;5015392;28;20112;-72
2021/10/12 00:48:25;;;;;;;12.77;11.80;;;14.20;99.90;;;;;;5033095;28;20385;-72
2021/10/12 00:50:53;;;;;;;12.70;12.02;;;14.40;99.90;;;;;;5032959;28;20025;-72
2021/10/12 00:53:21;;;;;;;13.60;12.35;;;14.60;99.90;;;;;;5032935;28;20025;-73
2021/10/12 00:55:48;;;;;;;13.00;11.85;;;14.60;99.90;;;;;;5015328;28;20030;-73
2021/10/12 00:58:17;;;;;;;11.52;10.63;;;14.90;99.90;;;;;;5015215;28;20071;-73
2021/10/12 01:00:44;;;;;;;12.57;11.52;;;14.80;99.90;;;;;;5032725;28;20475;-73
2021/10/12 01:03:12;;;;;;;12.13;11.10;;;15.10;99.90;;;;;;5015146;28;20076;-72
2021/10/12 01:05:40;;;;;;;11.68;10.60;;;15.30;99.90;;;;;;5032622;28;20418;-72
2021/10/12 01:08:08;;;;;;;11.80;10.82;;;15.40;99.90;;;;;;5032780;28;20029;-71
2021/10/12 01:10:35;;;;;;;12.13;11.35;;;15.70;99.90;;;;;;5015215;28;20056;-71
2021/10/12 01:13:03;;;;;;;11.57;10.70;;;15.70;99.90;;;;;;5032567;28;20547;-71
2021/10/12 01:15:32;;;;;;;11.48;10.50;;;15.90;99.90;;;;;;5032577;28;20026;-72
2021/10/12 01:18:00;;;;;;;11.50;10.90;;;15.90;99.90;;;;;;5032691;28;20029;-72
2021/10/12 01:20:35;;;;;;;10.75;9.88;;;16.20;99.90;;;;;;5032632;28;20018;-72
2021/10/12 01:23:03;;;;;;;12.38;11.07;;;16.00;99.90;;;;;;5030219;28;20021;-72
2021/10/12 01:25:31;;;;;;;12.48;10.20;;;16.00;99.90;;;;;;5032575;28;20056;-72
2021/10/12 01:28:00;;;;;;;15.65;11.48;;;16.30;99.90;;;;;;5032530;28;20083;-72
2021/10/12 01:30:27;;;;;;;11.13;10.10;;;16.20;99.90;;;;;;5032565;28;20022;-73
2021/10/12 01:32:55;;;;;;;10.38;9.57;;;16.20;99.90;;;;;;5014795;28;20030;-72
2021/10/12 01:35:23;;;;;;;10.32;9.45;;;16.00;99.90;;;;;;5032581;28;20363;-73
2021/10/12 01:37:50;;;;;;;11.18;10.27;;;16.10;99.90;;;;;;5032486;28;20017;-73
2021/10/12 01:40:18;;;;;;;11.20;10.00;;;16.10;99.90;;;;;;5032527;28;20047;-73
2021/10/12 01:42:46;;;;;;;13.23;9.98;;;16.10;99.90;;;;;;5032480;28;20111;-73
2021/10/12 01:45:14;;;;;;;11.02;9.90;;;16.10;99.90;;;;;;5032383;28;20104;-72
2021/10/12 01:47:42;;;;;;;9.63;8.90;;;16.00;99.90;;;;;;5032357;28;20510;-73
2021/10/12 01:50:12;;;;;;;16.48;10.02;;;16.20;99.90;;;;;;5032229;28;20045;-73
2021/10/12 01:52:40;;;;;;;9.90;9.20;;;16.20;99.90;;;;;;5032424;28;20030;-73
2021/10/12 01:55:08;;;;;;;11.20;9.23;;;16.40;99.90;;;;;;5032219;28;20037;-73
2021/10/12 01:57:36;;;;;;;10.90;8.80;;;16.70;99.90;;;;;;5032342;28;20056;-73
2021/10/12 02:00:06;;;;;;;10.10;9.10;;;16.70;99.90;;;;;;5032292;28;20021;-74
2021/10/12 02:02:34;;;;;;;9.98;9.00;;;16.90;99.90;;;;;;5032316;28;20554;-72
2021/10/12 02:05:01;;;;;;;10.00;8.70;;;16.80;99.90;;;;;;5031979;28;20103;-72
2021/10/12 02:07:29;;;;;;;9.57;8.88;;;16.80;99.90;;;;;;5032217;28;20434;-73
2021/10/12 02:09:56;;;;;;;9.80;8.80;;;16.80;99.90;;;;;;5032583;28;20025;-73
2021/10/12 02:12:24;;;;;;;10.52;9.50;;;16.80;99.90;;;;;;5034382;28;20028;-73
2021/10/12 02:14:51;;;;;;;10.18;8.90;;;17.00;99.90;;;;;;5035723;28;20478;-73
2021/10/12 02:17:19;;;;;;;10.48;9.15;;;17.10;99.90;;;;;;5035736;28;20021;-73
2021/10/12 02:19:46;;;;;;;9.52;8.35;;;17.10;99.90;;;;;;5035998;28;20044;-73
2021/10/12 02:22:14;;;;;;;10.63;8.32;;;16.90;99.90;;;;;;5035694;28;20018;-73
2021/10/12 02:24:41;;;;;;;9.52;8.50;;;16.70;99.90;;;;;;5035652;28;20025;-73
2021/10/12 02:27:09;;;;;;;8.73;8.05;;;16.50;99.90;;;;;;5035597;28;20018;-74
2021/10/12 02:29:36;;;;;;;11.13;8.20;;;16.50;99.90;;;;;;5035575;28;20021;-74
2021/10/12 02:32:04;;;;;;;8.50;7.82;;;16.60;99.90;;;;;;5035546;28;20014;-74
2021/10/12 02:34:31;;;;;;;9.10;8.30;;;16.30;99.90;;;;;;5035243;28;20025;-75
2021/10/12 02:36:59;;;;;;;9.90;8.90;;;16.20;99.90;;;;;;5035201;28;20390;-72
2021/10/12 02:39:26;;;;;;;10.07;8.70;;;16.20;99.90;;;;;;5034257;28;20021;-73
2021/10/12 02:41:54;;;;;;;9.00;8.18;;;16.10;99.90;;;;;;5017852;28;20033;-73
2021/10/12 02:44:21;;;;;;;8.50;7.68;;;16.10;99.90;;;;;;5035407;28;20025;-73
2021/10/12 02:46:49;;;;;;;12.23;8.30;;;16.10;99.90;;;;;;5035227;28;20055;-72
2021/10/12 02:49:16;;;;;;;9.50;8.70;;;16.10;99.90;;;;;;5034818;28;20096;-73
2021/10/12 02:51:44;;;;;;;10.27;9.30;;;16.40;99.90;;;;;;5035147;28;20100;-72
2021/10/12 02:54:11;;;;;;;10.50;9.43;;;16.60;99.90;;;;;;5035122;28;20029;-73
2021/10/12 02:56:39;;;;;;;11.15;10.20;;;16.70;99.90;;;;;;5034960;28;20032;-73
2021/10/12 02:59:07;;;;;;;10.27;9.27;;;16.90;99.90;;;;;;5035101;28;20025;-74
2021/10/12 03:01:35;;;;;;;9.73;8.85;;;17.00;99.90;;;;;;5035131;28;20018;-74
2021/10/12 03:04:05;;;;;;;10.07;9.15;;;17.10;99.90;;;;;;5034769;28;20033;-74
2021/10/12 03:06:33;;;;;;;9.95;9.00;;;17.10;99.90;;;;;;5033624;28;20053;-74
2021/10/12 03:09:01;;;;;;;10.38;8.70;;;17.00;99.90;;;;;;5033528;28;20509;-74
2021/10/12 03:11:28;;;;;;;9.70;8.70;;;17.00;99.90;;;;;;5034808;28;20029;-74
2021/10/12 03:13:56;;;;;;;11.25;8.02;;;17.10;99.90;;;;;;5034688;28;20025;-74
2021/10/12 03:16:24;;;;;;;9.02;8.20;;;16.90;99.90;;;;;;5034459;28;20021;-74
2021/10/12 03:18:52;;;;;;;8.88;7.97;;;16.90;99.90;;;;;;5016717;28;20074;-74
2021/10/12 03:21:21;;;;;;;6.72;6.28;;;17.10;99.90;;;;;;5017037;28;20102;-75
2021/10/12 03:23:48;;;;;;;6.97;6.47;;;17.20;99.90;;;;;;5033325;28;20024;-74
2021/10/12 03:26:16;;;;;;;8.90;6.80;;;17.30;99.90;;;;;;5034491;28;20025;-74
2021/10/12 03:28:44;;;;;;;8.15;6.35;;;17.20;99.90;;;;;;5033874;28;20075;-75
2021/10/12 03:31:11;;;;;;;5.80;5.30;;;17.30;99.90;;;;;;5034447;28;20057;-74
2021/10/12 03:33:39;;;;;;;4.97;4.28;;;17.40;99.90;;;;;;5016521;28;20032;-74
2021/10/12 03:36:18;;;;;;;5.20;4.40;;;17.60;99.90;;;;;;5034220;28;20037;-73
2021/10/12 03:38:45;;;;;;;8.50;4.40;;;17.50;99.90;;;;;;5034371;28;20014;-73
2021/10/12 03:41:13;;;;;;;5.70;4.70;;;17.50;99.90;;;;;;5034303;28;20021;-74
2021/10/12 03:43:40;;;;;;;4.80;4.30;;;17.40;99.90;;;;;;5016584;28;20025;-74
2021/10/12 03:46:08;;;;;;;5.88;4.90;;;17.40;99.90;;;;;;5034199;28;20481;-75
2021/10/12 03:48:36;;;;;;;5.75;4.38;;;17.50;99.90;;;;;;5034043;28;20112;-74
2021/10/12 03:51:03;;;;;;;4.97;4.60;;;17.70;99.90;;;;;;5032657;28;20076;-74
2021/10/12 03:53:31;;;;;;;7.55;4.30;;;17.70;99.90;;;;;;5016311;28;20534;-74
2021/10/12 03:55:58;;;;;;;4.47;4.00;;;17.60;99.90;;;;;;5032513;28;20030;-75
2021/10/12 03:58:26;;;;;;;6.30;3.80;;;17.70;99.90;;;;;;5034078;28;20014;-75
2021/10/12 04:00:53;;;;;;;10.10;4.70;;;17.50;99.90;;;;;;5034061;28;20024;-75
2021/10/12 04:03:22;;;;;;;4.10;3.70;;;17.60;99.90;;;;;;5034059;28;20018;-75
2021/10/12 04:05:49;;;;;;;4.50;4.10;;;17.70;99.90;;;;;;5032181;28;20413;-74
2021/10/12 04:08:17;;;;;;;6.90;3.63;;;17.60;99.90;;;;;;5033704;28;20022;-75
2021/10/12 04:10:44;;;;;;;4.82;3.20;;;17.60;99.90;;;;;;5033680;28;20028;-75
2021/10/12 04:13:11;;;;;;;6.90;3.60;;;17.50;99.90;;;;;;5033591;28;20095;-75
2021/10/12 04:15:39;;;;;;;5.68;3.60;;;17.60;99.90;;;;;;5033399;28;20026;-75
2021/10/12 04:18:10;;;;;;;5.57;3.20;;;17.60;99.90;;;;;;5033810;28;20363;-74
2021/10/12 04:20:37;;;;;;;3.55;2.85;;;17.60;99.90;;;;;;5033525;28;20025;-76
2021/10/12 04:23:08;;;;;;;4.00;3.10;;;17.70;99.90;;;;;;5033539;28;20022;-75
2021/10/12 04:25:36;;;;;;;3.80;2.95;;;17.70;99.90;;;;;;5033434;28;20497;-75
2021/10/12 04:28:10;;;;;;;6.78;3.40;;;17.80;99.90;;;;;;5033262;28;20075;-74
2021/10/12 04:30:41;;;;;;;5.68;3.45;;;17.80;99.90;;;;;;5033351;28;20455;-74
2021/10/12 04:33:09;;;;;;;3.28;3.08;;;17.70;99.90;;;;;;5033355;28;20083;-74
2021/10/12 04:35:37;;;;;;;4.22;2.63;;;17.70;99.90;;;;;;5032725;28;20025;-74
2021/10/12 04:38:05;;;;;;;6.78;3.10;;;17.70;99.90;;;;;;5033143;28;20048;-74
2021/10/12 04:40:32;;;;;;;3.78;3.08;;;17.80;99.90;;;;;;5033184;28;20072;-74
2021/10/12 04:43:05;;;;;;;4.22;2.90;;;17.80;99.90;;;;;;5033076;28;20048;-74
2021/10/12 04:45:33;;;;;;;4.60;3.30;;;17.60;99.90;;;;;;5015414;28;20029;-74
2021/10/12 04:48:00;;;;;;;5.28;3.00;;;17.40;99.90;;;;;;5031694;28;20402;-74
2021/10/12 04:50:28;;;;;;;4.45;3.70;;;17.50;99.90;;;;;;5032872;28;20480;-74
2021/10/12 04:52:55;;;;;;;3.90;3.20;;;17.40;99.90;;;;;;5015253;28;20521;-74
2021/10/12 04:55:23;;;;;;;5.78;3.30;;;17.20;99.90;;;;;;5031469;28;20056;-74
2021/10/12 04:57:50;;;;;;;3.88;2.80;;;17.20;99.90;;;;;;5015372;28;20029;-74
2021/10/12 05:00:18;;;;;;;5.70;3.28;;;17.10;99.90;;;;;;5032980;28;20474;-75
2021/10/12 05:02:45;;;;;;;7.00;3.70;;;17.10;99.90;;;;;;5015097;28;20390;-74
2021/10/12 05:05:13;;;;;;;5.32;3.30;;;17.00;99.90;;;;;;5032560;28;20072;-74
2021/10/12 05:07:40;;;;;;;4.95;2.70;;;16.90;99.90;;;;;;5032768;28;20080;-75
2021/10/12 05:10:08;;;;;;;7.85;3.30;;;17.00;99.90;;;;;;5015070;28;20026;-75
2021/10/12 05:12:35;;;;;;;6.28;2.85;;;17.00;99.90;;;;;;5015031;28;20033;-74
2021/10/12 05:15:03;;;;;;;5.65;2.78;;;17.00;99.90;;;;;;5032699;28;20048;-74
2021/10/12 05:17:36;;;;;;;4.47;2.85;;;17.00;99.90;;;;;;5032535;28;20442;-75
2021/10/12 05:20:05;;;;;;;4.55;2.90;;;17.00;99.90;;;;;;5032738;28;20049;-75
2021/10/12 05:22:33;;;;;;;4.45;2.92;;;17.10;99.90;;;;;;5031012;28;20026;-74
2021/10/12 05:25:00;;;;;;;3.85;2.95;;;17.20;99.90;;;;;;5032627;28;20478;-73
2021/10/12 05:27:28;;;;;;;3.97;3.47;;;17.30;99.90;;;;;;5032712;28;20017;-73
2021/10/12 05:29:55;;;;;;;8.43;3.60;;;17.40;99.90;;;;;;5031252;28;20017;-74
2021/10/12 05:32:22;;;;;;;4.45;3.50;;;17.30;99.90;;;;;;5032522;28;20381;-74
2021/10/12 05:34:50;;;;;;;4.70;3.50;;;17.30;99.90;;;;;;5032362;28;20394;-75
2021/10/12 05:37:17;;;;;;;6.32;3.60;;;17.50;99.90;;;;;;5032698;28;20080;-74
2021/10/12 05:39:45;;;;;;;4.78;3.75;;;17.40;99.90;;;;;;5014518;28;20022;-74
2021/10/12 05:42:12;;;;;;;4.85;3.17;;;17.60;99.90;;;;;;5030954;28;20482;-75
2021/10/12 05:44:39;;;;;;;8.05;3.40;;;17.60;99.90;;;;;;5032608;28;20047;-75
2021/10/12 05:47:07;;;;;;;4.47;3.10;;;17.80;99.90;;;;;;5016560;28;20079;-74
2021/10/12 05:49:36;;;;;;;5.78;3.00;;;18.00;99.90;;;;;;5036316;28;20397;-74
2021/10/12 05:52:04;;;;;;;4.78;3.03;;;18.00;99.90;;;;;;5036269;28;20079;-74
2021/10/12 05:54:33;;;;;;;4.15;2.78;;;18.00;98.90;;;;;;5034807;28;20029;-74
2021/10/12 05:57:06;;;;;;;5.03;2.40;;;18.00;99.80;;;;;;5034621;28;20113;-74
2021/10/12 05:59:34;;;;;;;5.10;2.58;;;17.90;99.40;;;;;;5035464;28;20474;-74
2021/10/12 06:02:01;;;;;;;3.00;2.40;;;18.10;99.70;;;;;;5035566;28;20100;-75
2021/10/12 06:04:29;;;;;;;5.35;2.40;;;18.10;99.90;;;;;;5017968;28;20091;-76
2021/10/12 06:07:01;;;;;;;5.30;2.30;;;18.20;99.90;;;;;;5018149;28;20083;-76
2021/10/12 06:09:29;;;;;;;7.20;2.97;;;18.10;99.90;;;;;;5036004;28;20429;-75
2021/10/12 06:11:57;;;;;;;5.15;2.58;;;18.20;99.90;;;;;;5035809;28;20025;-75
2021/10/12 06:14:24;;;;;;;3.92;2.65;;;18.10;99.50;;;;;;5034642;28;20029;-75
2021/10/12 06:16:52;;;;;;;5.78;2.63;;;18.00;99.90;;;;;;5017841;28;20067;-75
2021/10/12 06:19:19;;;;;;;6.68;2.70;;;17.80;99.90;;;;;;5034288;28;20478;-74
2021/10/12 06:21:46;;;;;;;5.63;3.30;;;17.70;99.30;;;;;;5035700;28;20120;-75
2021/10/12 06:24:14;;;;;;;8.55;3.85;;;17.50;99.90;;;;;;5035833;28;20021;-75
2021/10/12 06:26:41;;;;;;;9.63;3.42;;;17.50;99.90;;;;;;5035614;28;20075;-74
2021/10/12 06:29:08;;;;;;;5.65;3.45;;;17.30;99.90;;;;;;5035609;28;20052;-75
2021/10/12 06:31:36;;;;;;;4.95;2.70;;;17.10;99.90;;;;;;5035537;28;20104;-74
2021/10/12 06:34:03;;;;;;;5.72;3.35;;;17.00;99.90;;;;;;5035451;28;20025;-74
2021/10/12 06:36:31;;;;;;;7.38;3.05;;;17.10;99.90;;;;;;5017538;28;20080;-74
2021/10/12 06:38:58;;;;;;;6.03;3.10;;;16.90;99.90;;;;;;5035304;28;20391;-74
2021/10/12 06:41:27;;;;;;;3.35;2.63;;;16.90;99.90;;;;;;5017547;28;20026;-75
2021/10/12 06:43:54;;;;;;;3.60;3.05;;;16.90;99.90;;;;;;5035256;28;20045;-75
2021/10/12 06:46:22;;;;;;;7.15;2.85;;;16.80;99.90;;;;;;5033948;28;20164;-74
2021/10/12 06:48:49;;;;;;;4.68;3.08;;;16.80;99.90;;;;;;5017463;28;20478;-73
2021/10/12 06:51:17;;;;;;;6.03;3.20;;;16.80;99.90;;;;;;5035168;28;20470;-74
2021/10/12 06:53:46;;;;;;;5.18;3.33;;;16.80;99.90;;;;;;5017287;28;20036;-72
2021/10/12 06:56:15;;;;;;;4.22;3.30;;;16.70;99.90;;;;;;5034986;28;20028;-74
2021/10/12 06:58:44;;;;;;;3.72;3.42;;;16.70;99.90;;;;;;5016833;28;20017;-73
2021/10/12 07:01:11;;;;;;;4.57;3.25;;;16.60;99.90;;;;;;5034985;28;20025;-73
2021/10/12 07:03:39;;;;;;;4.22;3.20;;;16.60;99.90;;;;;;5034748;28;20069;-73
2021/10/12 07:06:06;;;;;;;5.97;3.53;;;16.60;99.90;;;;;;5034826;28;20092;-73
2021/10/12 07:08:33;;;;;;;4.72;3.72;;;16.60;99.90;;;;;;5016949;28;20482;-73
2021/10/12 07:11:01;;;;;;;6.70;3.55;;;16.60;99.90;;;;;;5034788;28;20522;-73
2021/10/12 07:13:31;;;;;;;8.60;3.95;;;16.50;99.90;;;;;;5034668;28;20021;-73
2021/10/12 07:15:58;;;;;;;5.28;3.25;;;16.50;99.90;;;;;;5034562;28;20025;-74
2021/10/12 07:18:26;;;;;;;4.43;2.90;;;16.40;99.90;;;;;;5034565;28;20104;-73
2021/10/12 07:20:54;;;;;;;4.50;3.22;;;16.30;99.90;;;;;;5034505;28;20433;-73
2021/10/12 07:23:21;;;;;;;4.05;2.75;;;16.30;99.90;;;;;;5016724;28;20026;-73
2021/10/12 07:25:49;;;;;;;8.10;2.90;;;16.30;99.90;;;;;;5034512;28;20025;-73
2021/10/12 07:28:17;;;;;;;5.43;2.80;;;16.20;99.90;;;;;;5034531;28;20032;-73
2021/10/12 07:30:44;;;;;;;6.60;3.22;;;16.10;99.90;;;;;;5016661;28;20120;-74
2021/10/12 07:33:11;;;;;;;5.75;2.88;;;16.10;99.90;;;;;;5034414;28;20032;-73
2021/10/12 07:35:43;;;;;;;4.85;3.10;;;16.00;99.90;;;;;;5034312;28;20478;-75
2021/10/12 07:38:13;;;;;;;6.97;3.08;;;15.90;99.90;;;;;;5034429;28;20386;-74
2021/10/12 07:40:43;;;;;;;8.10;3.13;;;15.90;99.90;;;;;;5034463;28;20079;-72
2021/10/12 07:43:10;;;;;;;4.25;3.15;;;15.80;99.90;;;;;;5034291;28;20084;-72
2021/10/12 07:45:38;;;;;;;11.20;2.70;;;15.70;99.90;;;;;;5034148;28;20501;-72
2021/10/12 07:48:05;;;;;;;5.82;2.80;;;15.70;99.90;;;;;;5034254;28;20605;-75
2021/10/12 07:50:33;;;;;;;5.70;3.22;;;15.70;99.90;;;;;;5034054;28;20407;-72
2021/10/12 07:53:00;;;;;;;6.63;4.03;;;15.70;99.90;;;;;;5033047;28;20398;-73
2021/10/12 07:57:58;;;;;;;4.85;2.95;;;15.60;99.90;;;;;;5034046;28;20021;-72
2021/10/12 08:00:28;;;;;;;6.10;3.90;;;15.50;99.90;;;;;;5033985;28;20024;-74
2021/10/12 08:02:55;;;;;;;8.17;3.43;;;15.50;99.90;;;;;;5033811;28;20383;-71
2021/10/12 08:05:23;;;;;;;4.80;3.10;;;15.50;99.90;;;;;;5033527;28;20049;-74
2021/10/12 08:07:50;;;;;;;4.63;2.95;;;15.50;99.90;;;;;;5032430;28;20079;-74
2021/10/12 08:10:18;;;;;;;6.85;3.53;;;15.40;99.90;;;;;;5033050;28;20080;-72
2021/10/12 08:12:47;;;;;;;6.25;3.25;;;15.40;99.90;;;;;;5033598;28;20021;-72
2021/10/12 08:15:14;;;;;;;5.60;3.50;;;15.40;99.90;;;;;;5033480;28;20064;-73
2021/10/12 08:17:42;;;;;;;7.57;3.65;;;15.30;99.90;;;;;;5016101;28;20029;-72
2021/10/12 08:20:09;;;;;;;8.80;3.97;;;15.30;99.90;;;;;;5033285;28;20017;-73
2021/10/12 08:22:37;;;;;;;4.47;3.22;;;15.30;99.90;;;;;;5015750;28;20022;-72
2021/10/12 08:25:07;;;;;;;8.32;3.20;;;15.30;99.90;;;;;;5033522;28;20021;-71
2021/10/12 08:27:38;;;;;;;5.32;3.38;;;15.30;99.90;;;;;;5031931;28;20049;-72
2021/10/12 08:30:08;;;;;;;6.72;3.60;;;15.20;99.90;;;;;;5033377;28;20024;-73
2021/10/12 08:32:35;;;;;;;5.70;2.95;;;15.10;99.90;;;;;;5033233;28;20017;-73
2021/10/12 08:35:03;;;;;;;5.00;3.28;;;15.20;99.90;;;;;;5031751;28;20021;-73
2021/10/12 08:37:31;;;;;;;5.57;3.00;;;15.20;99.90;;;;;;5033181;28;20026;-72
2021/10/12 08:40:00;;;;;;;4.63;2.80;;;15.20;99.90;;;;;;5033384;28;20025;-73
2021/10/12 08:42:39;;;;;;;5.30;3.30;;;15.20;99.90;;;;;;5015499;28;20029;-73
2021/10/12 08:45:08;;;;;;;8.07;3.10;;;15.20;99.90;;;;;;5033307;28;20021;-73
2021/10/12 08:47:37;;;;;;;5.05;3.00;;;15.20;99.90;;;;;;5031712;28;20460;-72
2021/10/12 08:50:08;;;;;;;6.40;3.40;;;15.20;99.90;;;;;;5033151;28;20032;-73
2021/10/12 08:52:34;;;;;;;;;;;15.10;99.90;;;;;;5033658;28;20049;-72
2021/10/12 08:55:03;;;;;;;5.88;2.80;;;15.10;99.90;;;;;;5033154;28;20365;-72
2021/10/12 08:57:35;;;;;;;5.13;3.33;;;15.10;99.90;;;;;;5032926;28;20098;-74
2021/10/12 09:00:11;;;;;;;4.80;3.03;;;15.00;99.90;;;;;;5032972;28;20026;-73
2021/10/12 09:03:51;;;;;;;9.18;3.45;;;15.00;99.90;;;;;;5032857;28;20025;-72
2021/10/12 09:05:59;;;;;;;6.93;2.88;;;14.90;99.90;;;;;;5025166;28;20067;-73
2021/10/12 09:08:38;;;;;;;5.88;3.03;;;14.90;99.90;;;;;;5032924;28;20037;-73
2021/10/12 09:11:26;;;;;;;6.38;3.17;;;14.90;99.90;;;;;;5032814;28;20044;-73
2021/10/12 09:14:03;;;;;;;6.47;2.83;;;14.90;99.90;;;;;;5032371;28;20033;-74
2021/10/12 09:16:40;;;;;;;10.52;3.45;;;14.90;99.90;;;;;;5032734;28;20116;-74
2021/10/12 09:19:10;;;;;;;5.43;3.53;;;14.90;99.90;;;;;;5032700;28;20028;-72
2021/10/12 09:21:49;;;;;;;6.70;3.43;;;14.90;99.90;;;;;;5035848;28;20018;-75
2021/10/12 09:24:25;;;;;;;4.22;2.88;;;14.90;99.90;;;;;;5035671;28;20071;-74
2021/10/12 09:27:06;;;;;;;4.63;3.17;;;14.90;99.90;;;;;;5018801;28;20033;-74
2021/10/12 09:29:47;;;;;;;7.78;3.20;;;14.90;99.90;;;;;;5036785;28;20025;-74
2021/10/12 09:32:14;;;;;;;7.80;3.67;;;14.90;99.90;;;;;;5018852;28;20022;-75
2021/10/12 09:34:45;;;;;;;6.55;3.50;;;14.90;99.90;;;;;;5036558;28;20089;-76
2021/10/12 09:37:19;;;;;;;4.53;3.00;;;14.90;99.90;;;;;;5035121;28;20025;-75
2021/10/12 09:39:48;;;;;;;7.00;3.35;;;14.90;99.90;;;;;;5036545;28;20026;-75
2021/10/12 09:42:18;;;;;;;8.10;3.38;;;14.90;99.90;;;;;;5036321;28;20025;-75
2021/10/12 09:44:58;;;;;;;4.75;2.92;;;15.00;99.90;;;;;;5034962;28;20512;-75
2021/10/12 09:47:27;;;;;;;3.70;2.60;;;15.00;99.90;;;;;;5034957;28;20032;-74
2021/10/12 09:50:13;;;;;;;5.83;2.93;;;15.00;99.90;;;;;;5036319;28;20104;-75
2021/10/12 09:52:47;;;;;;;4.55;2.63;;;15.00;99.90;;;;;;5035280;28;20025;-74
2021/10/12 09:55:15;;;;;;;5.47;2.83;;;15.00;99.90;;;;;;5036209;28;20470;-75
2021/10/12 09:57:43;;;;;;;10.23;2.70;;;15.00;99.90;;;;;;5036097;28;20032;-76
2021/10/12 10:00:11;;;;;;;4.45;2.70;;;15.00;99.90;;;;;;5018308;28;20479;-75
2021/10/12 10:02:39;;;;;;;6.20;3.10;;;15.00;99.90;;;;;;5034612;28;20494;-74
2021/10/12 10:05:08;;;;;;;5.10;3.08;;;15.10;99.90;;;;;;5035731;28;20040;-73
2021/10/12 10:07:48;;;;;;;9.27;3.58;;;15.10;99.90;;;;;;5035888;28;20049;-73
2021/10/12 10:10:16;;;;;;;5.07;3.15;;;15.10;99.90;;;;;;5035928;28;20018;-74
2021/10/12 10:12:45;;;;;;;5.43;3.10;;;15.10;99.90;;;;;;5034399;28;20084;-73
2021/10/12 10:15:12;;;;;;;6.28;3.20;;;15.00;99.90;;;;;;5035671;28;20026;-74
2021/10/12 10:17:42;;;;;;;4.40;3.05;;;15.00;99.90;;;;;;5035661;28;20061;-74
2021/10/12 10:20:12;;;;;;;7.87;3.57;;;15.00;99.90;;;;;;5035527;28;20013;-72
2021/10/12 10:22:49;;;;;;;4.55;3.17;;;15.00;99.90;;;;;;5035503;28;20022;-73
2021/10/12 10:25:38;;;;;;;7.18;3.22;;;15.00;99.90;;;;;;5035538;28;20132;-73
2021/10/12 10:28:17;;;;;;;3.00;2.72;;;15.00;99.90;;;;;;5034165;28;20021;-73
2021/10/12 10:30:47;;;;;;;9.15;3.55;;;15.00;99.90;;;;;;5035492;28;20105;-74
2021/10/12 10:33:26;;;;;;;5.43;3.08;;;15.00;99.90;;;;;;5035085;28;20026;-74
2021/10/12 10:36:15;;;;;;;5.57;2.88;;;15.00;99.90;;;;;;5035391;28;20025;-74
2021/10/12 10:38:47;;;;;;;3.63;2.63;;;15.00;99.90;;;;;;5035373;28;20390;-74
2021/10/12 10:41:14;;;;;;;6.32;2.53;;;15.00;99.90;;;;;;5035277;28;20025;-74
2021/10/12 10:43:55;;;;;;;5.07;2.80;;;15.00;99.90;;;;;;5035247;28;20100;-75
2021/10/12 10:46:34;;;;;;;3.42;2.72;;;15.00;99.90;;;;;;5033866;28;20029;-74
2021/10/12 10:49:13;;;;;;;4.15;3.03;;;14.90;99.90;;;;;;5035169;28;20040;-73
2021/10/12 10:52:02;;;;;;;5.50;3.30;;;15.00;99.90;;;;;;5017313;28;20021;-74
2021/10/12 10:54:44;;;;;;;5.88;3.47;;;15.00;99.90;;;;;;5033743;28;20021;-74
2021/10/12 10:57:19;;;;;;;7.88;3.33;;;15.00;99.90;;;;;;5035078;28;20029;-74
2021/10/12 10:59:47;;;;;;;4.88;3.35;;;15.00;99.90;;;;;;5034979;28;20026;-74
2021/10/12 11:02:30;;;;;;;3.83;3.10;;;15.00;99.90;;;;;;5034944;28;20104;-74
2021/10/12 11:04:57;;;;;;;3.00;2.70;;;15.00;99.90;;;;;;5016879;28;20050;-74
2021/10/12 11:07:27;;;;;;;7.05;3.50;;;15.00;99.90;;;;;;5034829;28;20443;-73
2021/10/12 11:09:56;;;;;;;4.18;3.65;;;15.00;99.90;;;;;;5033569;28;20072;-73
2021/10/12 11:12:25;;;;;;;6.55;3.30;;;15.00;99.90;;;;;;5034905;28;20026;-75
2021/10/12 11:14:54;;;;;;;4.63;2.90;;;15.00;99.90;;;;;;5033117;28;20027;-74
2021/10/12 11:17:22;;;;;;;5.22;3.30;;;15.00;99.90;;;;;;5034585;28;20030;-75
2021/10/12 11:20:09;;;;;;;3.95;3.38;;;15.10;99.90;;;;;;5033218;28;20029;-74
2021/10/12 11:22:42;;;;;;;5.00;4.03;;;15.00;99.90;;;;;;5034393;28;20024;-74
2021/10/12 11:25:13;;;;;;;6.03;3.92;;;15.00;99.90;;;;;;5033159;28;20080;-74
2021/10/12 11:27:45;;;;;;;3.50;3.30;;;15.00;99.90;;;;;;5034512;28;20024;-74
2021/10/12 11:30:15;;;;;;;6.90;3.80;;;15.00;99.90;;;;;;5032901;28;20021;-74
2021/10/12 11:32:53;;;;;;;7.53;3.72;;;14.90;99.90;;;;;;5032992;28;20536;-74
2021/10/12 11:35:20;;;;;;;4.78;3.42;;;14.90;99.90;;;;;;5016429;28;20427;-74
2021/10/12 11:37:53;;;;;;;6.72;3.47;;;15.00;99.90;;;;;;5032920;28;20029;-74
2021/10/12 11:40:25;;;;;;;5.35;3.65;;;15.00;99.90;;;;;;5032788;28;20093;-74
2021/10/12 11:42:56;;;;;;;7.13;3.75;;;15.00;99.90;;;;;;5034165;28;20018;-74
2021/10/12 11:45:23;;;;;;;3.90;3.38;;;15.00;99.90;;;;;;5031645;28;20124;-73
2021/10/12 11:47:51;;;;;;;3.65;3.35;;;14.90;99.90;;;;;;5032638;28;20029;-74
2021/10/12 11:50:18;;;;;;;3.65;3.35;;;14.90;99.90;;;;;;5016110;28;20493;-73
2021/10/12 11:52:54;;;;;;;5.22;3.50;;;14.90;99.90;;;;;;5033837;28;20060;-72
2021/10/12 11:55:26;;;;;;;4.97;3.50;;;14.90;99.90;;;;;;5032418;28;20036;-73
2021/10/12 11:57:54;;;;;;;7.32;3.50;;;14.90;99.90;;;;;;5033795;28;20060;-74
2021/10/12 12:00:37;;;;;;;4.50;3.47;;;14.90;99.90;;;;;;5033809;28;20478;-74
2021/10/12 12:03:21;;;;;;;4.95;3.40;;;14.90;99.90;;;;;;5033735;28;20406;-74
2021/10/12 12:05:56;;;;;;;7.05;4.28;;;14.90;99.90;;;;;;5033320;28;20045;-74
2021/10/12 12:08:27;;;;;;;4.97;3.83;;;14.90;99.90;;;;;;5033429;28;20392;-74
2021/10/12 12:10:56;;;;;;;3.60;3.30;;;14.90;99.90;;;;;;5033836;28;20476;-73
2021/10/12 12:13:27;;;;;;;7.07;4.13;;;14.90;99.90;;;;;;5032183;28;20025;-73
2021/10/12 12:15:55;;;;;;;7.78;4.07;;;14.90;99.90;;;;;;5033284;28;20113;-73
2021/10/12 12:18:25;;;;;;;4.60;3.45;;;14.90;99.90;;;;;;5033445;28;20028;-74
2021/10/12 12:21:02;;;;;;;4.40;3.35;;;14.90;99.90;;;;;;5032065;28;20095;-75
2021/10/12 12:23:54;;;;;;;5.53;3.60;;;15.00;99.90;;;;;;5032167;28;20025;-74
2021/10/12 12:26:24;;;;;;;5.47;3.50;;;14.90;99.90;;;;;;5033418;28;20056;-74
2021/10/12 12:28:51;;;;;;;6.47;3.33;;;14.90;99.90;;;;;;5033217;28;20500;-74
2021/10/12 12:31:27;;;;;;;3.80;3.40;;;14.90;99.90;;;;;;5033164;28;20032;-74
2021/10/12 12:33:56;;;;;;;4.13;3.50;;;14.90;99.90;;;;;;5033123;28;20026;-74
2021/10/12 12:36:35;;;;;;;8.10;3.70;;;14.90;99.90;;;;;;5033060;28;20044;-74
2021/10/12 12:39:10;;;;;;;6.68;3.60;;;14.90;99.90;;;;;;5015473;28;20370;-74
2021/10/12 12:41:42;;;;;;;6.15;3.30;;;15.00;99.90;;;;;;5033068;28;20056;-74
2021/10/12 12:44:10;;;;;;;4.72;3.50;;;15.00;99.90;;;;;;5032979;28;20283;-74
2021/10/12 12:46:55;;;;;;;6.97;3.50;;;14.90;99.90;;;;;;5015241;28;20033;-74
2021/10/12 12:49:23;;;;;;;4.30;3.47;;;15.00;99.90;;;;;;5032966;28;20474;-74
2021/10/12 12:51:51;;;;;;;4.25;3.58;;;15.00;99.90;;;;;;5032925;28;20105;-74
2021/10/12 12:54:34;;;;;;;5.50;3.60;;;15.00;99.90;;;;;;5032887;28;20176;-74
2021/10/12 12:57:09;;;;;;;4.13;3.20;;;15.00;99.90;;;;;;5032474;28;20021;-74
2021/10/12 12:59:39;;;;;;;4.35;3.40;;;15.00;99.90;;;;;;5032797;28;20028;-74